sensor_id;sensor_type;location;lat;lon;timestamp;P1;durP1;ratioP1;P2;durP2;ratioP2
33268;SDS011;19640;50.944;5.260;2023-03-11T00:02:16;5.22;;;1.73;;
33268;SDS011;19640;50.944;5.260;2023-03-11T00:04:42;7.20;;;1.92;;
33268;SDS011;19640;50.944;5.260;2023-03-11T00:07:08;4.30;;;1.73;;
33268;SDS011;19640;50.944;5.260;2023-03-11T00:09:34;6.80;;;1.80;;
33268;SDS011;19640;50.944;5.260;2023-03-11T00:12:00;4.05;;;1.83;;
33268;SDS011;19640;50.944;5.260;2023-03-11T00:14:27;4.95;;;1.63;;
33268;SDS011;19640;50.944;5.260;2023-03-11T00:16:52;14.55;;;2.22;;
33268;SDS011;19640;50.944;5.260;2023-03-11T00:19:18;5.45;;;1.80;;
33268;SDS011;19640;50.944;5.260;2023-03-11T00:21:44;9.57;;;1.90;;
33268;SDS011;19640;50.944;5.260;2023-03-11T00:24:09;5.38;;;1.90;;
33268;SDS011;19640;50.944;5.260;2023-03-11T00:26:35;3.45;;;1.67;;
33268;SDS011;19640;50.944;5.260;2023-03-11T00:29:02;11.90;;;2.47;;
33268;SDS011;19640;50.944;5.260;2023-03-11T00:31:27;9.27;;;3.35;;
33268;SDS011;19640;50.944;5.260;2023-03-11T00:33:53;4.75;;;1.65;;
33268;SDS011;19640;50.944;5.260;2023-03-11T00:38:55;11.02;;;2.03;;
33268;SDS011;19640;50.944;5.260;2023-03-11T00:41:22;9.20;;;2.50;;
33268;SDS011;19640;50.944;5.260;2023-03-11T00:43:48;5.75;;;1.90;;
33268;SDS011;19640;50.944;5.260;2023-03-11T00:46:13;6.38;;;2.30;;
33268;SDS011;19640;50.944;5.260;2023-03-11T00:48:39;7.60;;;2.33;;
33268;SDS011;19640;50.944;5.260;2023-03-11T00:51:06;7.75;;;2.38;;
33268;SDS011;19640;50.944;5.260;2023-03-11T00:53:35;7.13;;;2.40;;
33268;SDS011;19640;50.944;5.260;2023-03-11T00:56:05;5.82;;;2.00;;
33268;SDS011;19640;50.944;5.260;2023-03-11T00:58:35;5.28;;;2.20;;
33268;SDS011;19640;50.944;5.260;2023-03-11T01:01:11;12.57;;;2.58;;
33268;SDS011;19640;50.944;5.260;2023-03-11T01:03:39;5.60;;;3.20;;
33268;SDS011;19640;50.944;5.260;2023-03-11T01:06:06;8.27;;;3.28;;
33268;SDS011;19640;50.944;5.260;2023-03-11T01:08:32;9.13;;;3.47;;
33268;SDS011;19640;50.944;5.260;2023-03-11T01:10:58;11.98;;;3.65;;
33268;SDS011;19640;50.944;5.260;2023-03-11T01:13:24;13.45;;;3.28;;
33268;SDS011;19640;50.944;5.260;2023-03-11T01:15:51;8.88;;;2.78;;
33268;SDS011;19640;50.944;5.260;2023-03-11T01:18:17;6.88;;;2.50;;
33268;SDS011;19640;50.944;5.260;2023-03-11T01:20:44;11.05;;;2.55;;
33268;SDS011;19640;50.944;5.260;2023-03-11T01:23:11;5.20;;;2.63;;
33268;SDS011;19640;50.944;5.260;2023-03-11T01:25:38;9.95;;;3.00;;
33268;SDS011;19640;50.944;5.260;2023-03-11T01:28:04;6.50;;;3.03;;
33268;SDS011;19640;50.944;5.260;2023-03-11T01:30:30;7.55;;;3.33;;
33268;SDS011;19640;50.944;5.260;2023-03-11T01:32:56;11.95;;;3.30;;
33268;SDS011;19640;50.944;5.260;2023-03-11T01:35:24;11.90;;;4.45;;
33268;SDS011;19640;50.944;5.260;2023-03-11T01:37:51;7.40;;;2.60;;
33268;SDS011;19640;50.944;5.260;2023-03-11T01:40:31;8.10;;;2.55;;
33268;SDS011;19640;50.944;5.260;2023-03-11T01:43:00;6.40;;;2.83;;
33268;SDS011;19640;50.944;5.260;2023-03-11T01:48:11;13.63;;;3.67;;
33268;SDS011;19640;50.944;5.260;2023-03-11T01:50:38;5.68;;;3.17;;
33268;SDS011;19640;50.944;5.260;2023-03-11T01:53:10;5.68;;;2.78;;
33268;SDS011;19640;50.944;5.260;2023-03-11T01:55:38;8.85;;;2.85;;
33268;SDS011;19640;50.944;5.260;2023-03-11T01:58:05;5.93;;;2.78;;
33268;SDS011;19640;50.944;5.260;2023-03-11T02:00:34;11.43;;;3.55;;
33268;SDS011;19640;50.944;5.260;2023-03-11T02:03:01;6.13;;;3.20;;
33268;SDS011;19640;50.944;5.260;2023-03-11T02:05:33;12.07;;;3.20;;
33268;SDS011;19640;50.944;5.260;2023-03-11T02:08:00;8.25;;;3.38;;
33268;SDS011;19640;50.944;5.260;2023-03-11T02:10:27;5.53;;;3.70;;
33268;SDS011;19640;50.944;5.260;2023-03-11T02:12:53;8.40;;;3.28;;
33268;SDS011;19640;50.944;5.260;2023-03-11T02:15:18;10.48;;;3.22;;
33268;SDS011;19640;50.944;5.260;2023-03-11T02:17:44;5.38;;;2.78;;
33268;SDS011;19640;50.944;5.260;2023-03-11T02:22:46;7.95;;;3.15;;
33268;SDS011;19640;50.944;5.260;2023-03-11T02:28:04;13.05;;;4.60;;
33268;SDS011;19640;50.944;5.260;2023-03-11T02:30:33;7.95;;;3.20;;
33268;SDS011;19640;50.944;5.260;2023-03-11T02:32:59;7.43;;;3.80;;
33268;SDS011;19640;50.944;5.260;2023-03-11T02:35:26;9.65;;;3.90;;
33268;SDS011;19640;50.944;5.260;2023-03-11T02:37:52;5.45;;;3.20;;
33268;SDS011;19640;50.944;5.260;2023-03-11T02:43:00;10.00;;;3.95;;
33268;SDS011;19640;50.944;5.260;2023-03-11T02:45:30;7.53;;;3.60;;
33268;SDS011;19640;50.944;5.260;2023-03-11T02:47:56;8.00;;;3.55;;
33268;SDS011;19640;50.944;5.260;2023-03-11T02:50:23;4.93;;;3.55;;
33268;SDS011;19640;50.944;5.260;2023-03-11T02:52:51;7.68;;;3.28;;
33268;SDS011;19640;50.944;5.260;2023-03-11T02:55:17;9.10;;;3.60;;
33268;SDS011;19640;50.944;5.260;2023-03-11T02:57:44;5.32;;;3.00;;
33268;SDS011;19640;50.944;5.260;2023-03-11T03:00:11;6.20;;;3.50;;
33268;SDS011;19640;50.944;5.260;2023-03-11T03:02:40;8.20;;;3.42;;
33268;SDS011;19640;50.944;5.260;2023-03-11T03:05:08;9.15;;;3.63;;
33268;SDS011;19640;50.944;5.260;2023-03-11T03:07:34;7.78;;;4.50;;
33268;SDS011;19640;50.944;5.260;2023-03-11T03:10:00;8.50;;;3.42;;
33268;SDS011;19640;50.944;5.260;2023-03-11T03:12:27;8.85;;;3.92;;
33268;SDS011;19640;50.944;5.260;2023-03-11T03:14:52;8.30;;;4.72;;
33268;SDS011;19640;50.944;5.260;2023-03-11T03:17:18;6.40;;;3.13;;
33268;SDS011;19640;50.944;5.260;2023-03-11T03:19:44;6.82;;;3.17;;
33268;SDS011;19640;50.944;5.260;2023-03-11T03:22:09;5.20;;;3.13;;
33268;SDS011;19640;50.944;5.260;2023-03-11T03:24:35;9.18;;;3.30;;
33268;SDS011;19640;50.944;5.260;2023-03-11T03:27:00;8.38;;;3.42;;
33268;SDS011;19640;50.944;5.260;2023-03-11T03:29:26;7.75;;;3.20;;
33268;SDS011;19640;50.944;5.260;2023-03-11T03:31:52;10.02;;;3.42;;
33268;SDS011;19640;50.944;5.260;2023-03-11T03:34:19;8.57;;;3.28;;
33268;SDS011;19640;50.944;5.260;2023-03-11T03:36:44;4.97;;;3.40;;
33268;SDS011;19640;50.944;5.260;2023-03-11T03:39:10;9.13;;;3.53;;
33268;SDS011;19640;50.944;5.260;2023-03-11T03:41:36;6.00;;;3.05;;
33268;SDS011;19640;50.944;5.260;2023-03-11T03:44:02;7.75;;;3.38;;
33268;SDS011;19640;50.944;5.260;2023-03-11T03:46:27;7.13;;;3.00;;
33268;SDS011;19640;50.944;5.260;2023-03-11T03:48:53;7.18;;;3.13;;
33268;SDS011;19640;50.944;5.260;2023-03-11T03:51:19;7.25;;;2.78;;
33268;SDS011;19640;50.944;5.260;2023-03-11T03:53:44;5.40;;;2.90;;
33268;SDS011;19640;50.944;5.260;2023-03-11T03:56:14;5.57;;;2.80;;
33268;SDS011;19640;50.944;5.260;2023-03-11T03:58:41;7.80;;;2.88;;
33268;SDS011;19640;50.944;5.260;2023-03-11T04:01:07;11.02;;;4.80;;
33268;SDS011;19640;50.944;5.260;2023-03-11T04:03:34;7.70;;;3.28;;
33268;SDS011;19640;50.944;5.260;2023-03-11T04:06:05;12.35;;;3.67;;
33268;SDS011;19640;50.944;5.260;2023-03-11T04:08:31;5.88;;;2.90;;
33268;SDS011;19640;50.944;5.260;2023-03-11T04:10:57;6.03;;;3.03;;
33268;SDS011;19640;50.944;5.260;2023-03-11T04:13:23;7.00;;;2.80;;
33268;SDS011;19640;50.944;5.260;2023-03-11T04:15:48;5.70;;;2.55;;
33268;SDS011;19640;50.944;5.260;2023-03-11T04:18:14;7.45;;;3.00;;
33268;SDS011;19640;50.944;5.260;2023-03-11T04:20:40;5.75;;;2.58;;
33268;SDS011;19640;50.944;5.260;2023-03-11T04:23:05;4.47;;;2.53;;
33268;SDS011;19640;50.944;5.260;2023-03-11T04:25:31;5.10;;;2.75;;
33268;SDS011;19640;50.944;5.260;2023-03-11T04:27:58;7.78;;;2.72;;
33268;SDS011;19640;50.944;5.260;2023-03-11T04:30:24;4.75;;;2.50;;
33268;SDS011;19640;50.944;5.260;2023-03-11T04:32:49;6.15;;;2.45;;
33268;SDS011;19640;50.944;5.260;2023-03-11T04:35:15;7.70;;;2.72;;
33268;SDS011;19640;50.944;5.260;2023-03-11T04:37:41;10.73;;;2.63;;
33268;SDS011;19640;50.944;5.260;2023-03-11T04:40:07;7.00;;;3.55;;
33268;SDS011;19640;50.944;5.260;2023-03-11T04:42:34;5.88;;;2.80;;
33268;SDS011;19640;50.944;5.260;2023-03-11T04:45:00;9.18;;;3.00;;
33268;SDS011;19640;50.944;5.260;2023-03-11T04:47:26;5.18;;;2.80;;
33268;SDS011;19640;50.944;5.260;2023-03-11T04:49:52;5.03;;;2.67;;
33268;SDS011;19640;50.944;5.260;2023-03-11T04:52:20;5.28;;;3.20;;
33268;SDS011;19640;50.944;5.260;2023-03-11T04:54:46;5.05;;;3.20;;
33268;SDS011;19640;50.944;5.260;2023-03-11T04:57:11;6.72;;;3.10;;
33268;SDS011;19640;50.944;5.260;2023-03-11T04:59:37;8.02;;;3.03;;
33268;SDS011;19640;50.944;5.260;2023-03-11T05:02:03;5.28;;;2.80;;
33268;SDS011;19640;50.944;5.260;2023-03-11T05:04:28;6.07;;;3.33;;
33268;SDS011;19640;50.944;5.260;2023-03-11T05:06:54;4.53;;;2.40;;
33268;SDS011;19640;50.944;5.260;2023-03-11T05:09:20;6.18;;;2.60;;
33268;SDS011;19640;50.944;5.260;2023-03-11T05:11:45;6.95;;;2.85;;
33268;SDS011;19640;50.944;5.260;2023-03-11T05:14:11;6.65;;;3.00;;
33268;SDS011;19640;50.944;5.260;2023-03-11T05:16:36;4.10;;;2.65;;
33268;SDS011;19640;50.944;5.260;2023-03-11T05:19:02;6.68;;;3.13;;
33268;SDS011;19640;50.944;5.260;2023-03-11T05:21:48;7.85;;;3.20;;
33268;SDS011;19640;50.944;5.260;2023-03-11T05:24:13;5.40;;;2.78;;
33268;SDS011;19640;50.944;5.260;2023-03-11T05:26:39;5.30;;;3.00;;
33268;SDS011;19640;50.944;5.260;2023-03-11T05:29:05;5.88;;;3.13;;
33268;SDS011;19640;50.944;5.260;2023-03-11T05:31:31;7.47;;;3.40;;
33268;SDS011;19640;50.944;5.260;2023-03-11T05:33:56;8.95;;;3.13;;
33268;SDS011;19640;50.944;5.260;2023-03-11T05:36:22;6.13;;;3.90;;
33268;SDS011;19640;50.944;5.260;2023-03-11T05:38:48;8.80;;;2.63;;
33268;SDS011;19640;50.944;5.260;2023-03-11T05:41:13;4.03;;;2.70;;
33268;SDS011;19640;50.944;5.260;2023-03-11T05:43:39;5.30;;;3.10;;
33268;SDS011;19640;50.944;5.260;2023-03-11T05:46:05;6.97;;;3.17;;
33268;SDS011;19640;50.944;5.260;2023-03-11T05:48:30;4.75;;;3.85;;
33268;SDS011;19640;50.944;5.260;2023-03-11T05:50:56;7.97;;;4.15;;
33268;SDS011;19640;50.944;5.260;2023-03-11T05:53:22;7.80;;;3.40;;
33268;SDS011;19640;50.944;5.260;2023-03-11T05:55:57;6.43;;;3.13;;
33268;SDS011;19640;50.944;5.260;2023-03-11T05:58:24;4.68;;;3.30;;
33268;SDS011;19640;50.944;5.260;2023-03-11T06:00:50;5.93;;;2.50;;
33268;SDS011;19640;50.944;5.260;2023-03-11T06:03:15;9.38;;;3.28;;
33268;SDS011;19640;50.944;5.260;2023-03-11T06:05:45;12.75;;;4.15;;
33268;SDS011;19640;50.944;5.260;2023-03-11T06:08:11;6.65;;;4.85;;
33268;SDS011;19640;50.944;5.260;2023-03-11T06:10:37;8.07;;;4.35;;
33268;SDS011;19640;50.944;5.260;2023-03-11T06:13:03;8.18;;;3.88;;
33268;SDS011;19640;50.944;5.260;2023-03-11T06:15:28;8.07;;;3.72;;
33268;SDS011;19640;50.944;5.260;2023-03-11T06:17:54;6.93;;;2.95;;
33268;SDS011;19640;50.944;5.260;2023-03-11T06:20:20;5.22;;;3.65;;
33268;SDS011;19640;50.944;5.260;2023-03-11T06:22:48;4.65;;;3.72;;
33268;SDS011;19640;50.944;5.260;2023-03-11T06:25:14;4.85;;;3.75;;
33268;SDS011;19640;50.944;5.260;2023-03-11T06:27:40;8.95;;;3.78;;
33268;SDS011;19640;50.944;5.260;2023-03-11T06:30:06;7.90;;;3.53;;
33268;SDS011;19640;50.944;5.260;2023-03-11T06:32:32;6.45;;;3.85;;
33268;SDS011;19640;50.944;5.260;2023-03-11T06:34:59;4.97;;;3.65;;
33268;SDS011;19640;50.944;5.260;2023-03-11T06:37:24;5.60;;;3.35;;
33268;SDS011;19640;50.944;5.260;2023-03-11T06:39:51;8.65;;;4.13;;
33268;SDS011;19640;50.944;5.260;2023-03-11T06:42:17;5.05;;;3.97;;
33268;SDS011;19640;50.944;5.260;2023-03-11T06:44:43;5.50;;;4.88;;
33268;SDS011;19640;50.944;5.260;2023-03-11T06:47:12;7.00;;;3.30;;
33268;SDS011;19640;50.944;5.260;2023-03-11T06:49:37;7.13;;;3.90;;
33268;SDS011;19640;50.944;5.260;2023-03-11T06:52:05;5.47;;;3.53;;
33268;SDS011;19640;50.944;5.260;2023-03-11T06:54:31;6.90;;;3.80;;
33268;SDS011;19640;50.944;5.260;2023-03-11T06:56:57;7.15;;;3.55;;
33268;SDS011;19640;50.944;5.260;2023-03-11T06:59:22;6.07;;;3.15;;
33268;SDS011;19640;50.944;5.260;2023-03-11T07:01:48;8.15;;;3.92;;
33268;SDS011;19640;50.944;5.260;2023-03-11T07:04:14;6.07;;;4.20;;
33268;SDS011;19640;50.944;5.260;2023-03-11T07:06:40;6.13;;;3.72;;
33268;SDS011;19640;50.944;5.260;2023-03-11T07:09:06;12.05;;;3.65;;
33268;SDS011;19640;50.944;5.260;2023-03-11T07:11:32;4.65;;;3.40;;
33268;SDS011;19640;50.944;5.260;2023-03-11T07:13:58;5.53;;;3.70;;
33268;SDS011;19640;50.944;5.260;2023-03-11T07:16:24;8.20;;;4.53;;
33268;SDS011;19640;50.944;5.260;2023-03-11T07:18:53;8.55;;;4.47;;
33268;SDS011;19640;50.944;5.260;2023-03-11T07:21:21;9.95;;;4.35;;
33268;SDS011;19640;50.944;5.260;2023-03-11T07:23:50;11.50;;;4.45;;
33268;SDS011;19640;50.944;5.260;2023-03-11T07:26:20;6.97;;;4.68;;
33268;SDS011;19640;50.944;5.260;2023-03-11T07:28:46;7.60;;;4.70;;
33268;SDS011;19640;50.944;5.260;2023-03-11T07:31:17;8.95;;;4.45;;
33268;SDS011;19640;50.944;5.260;2023-03-11T07:33:45;8.23;;;4.85;;
33268;SDS011;19640;50.944;5.260;2023-03-11T07:36:12;11.80;;;5.13;;
33268;SDS011;19640;50.944;5.260;2023-03-11T07:38:40;9.55;;;4.88;;
33268;SDS011;19640;50.944;5.260;2023-03-11T07:41:07;5.80;;;4.47;;
33268;SDS011;19640;50.944;5.260;2023-03-11T07:43:33;8.15;;;4.30;;
33268;SDS011;19640;50.944;5.260;2023-03-11T07:46:03;9.93;;;4.65;;
33268;SDS011;19640;50.944;5.260;2023-03-11T07:48:32;10.40;;;5.00;;
33268;SDS011;19640;50.944;5.260;2023-03-11T07:51:02;9.68;;;5.00;;
33268;SDS011;19640;50.944;5.260;2023-03-11T07:53:28;6.60;;;4.40;;
33268;SDS011;19640;50.944;5.260;2023-03-11T07:55:55;8.40;;;3.53;;
33268;SDS011;19640;50.944;5.260;2023-03-11T07:58:21;8.05;;;3.78;;
33268;SDS011;19640;50.944;5.260;2023-03-11T08:00:47;7.75;;;3.05;;
33268;SDS011;19640;50.944;5.260;2023-03-11T08:03:12;3.85;;;2.95;;
33268;SDS011;19640;50.944;5.260;2023-03-11T08:05:38;4.88;;;2.55;;
33268;SDS011;19640;50.944;5.260;2023-03-11T08:08:04;5.65;;;3.15;;
33268;SDS011;19640;50.944;5.260;2023-03-11T08:10:29;7.88;;;3.35;;
33268;SDS011;19640;50.944;5.260;2023-03-11T08:12:55;5.32;;;2.72;;
33268;SDS011;19640;50.944;5.260;2023-03-11T08:15:20;14.30;;;3.50;;
33268;SDS011;19640;50.944;5.260;2023-03-11T08:17:46;6.65;;;3.78;;
33268;SDS011;19640;50.944;5.260;2023-03-11T08:20:12;9.35;;;3.97;;
33268;SDS011;19640;50.944;5.260;2023-03-11T08:22:37;5.07;;;3.38;;
33268;SDS011;19640;50.944;5.260;2023-03-11T08:25:03;9.27;;;3.97;;
33268;SDS011;19640;50.944;5.260;2023-03-11T08:27:29;7.28;;;3.83;;
33268;SDS011;19640;50.944;5.260;2023-03-11T08:29:55;7.93;;;3.92;;
33268;SDS011;19640;50.944;5.260;2023-03-11T08:32:21;8.30;;;4.32;;
33268;SDS011;19640;50.944;5.260;2023-03-11T08:34:47;7.85;;;3.95;;
33268;SDS011;19640;50.944;5.260;2023-03-11T08:37:13;10.45;;;4.18;;
33268;SDS011;19640;50.944;5.260;2023-03-11T08:39:38;5.60;;;3.88;;
33268;SDS011;19640;50.944;5.260;2023-03-11T08:42:04;6.70;;;4.13;;
33268;SDS011;19640;50.944;5.260;2023-03-11T08:44:30;8.02;;;4.47;;
33268;SDS011;19640;50.944;5.260;2023-03-11T08:46:55;9.82;;;5.30;;
33268;SDS011;19640;50.944;5.260;2023-03-11T08:49:21;6.07;;;4.05;;
33268;SDS011;19640;50.944;5.260;2023-03-11T08:51:47;6.47;;;3.85;;
33268;SDS011;19640;50.944;5.260;2023-03-11T08:54:12;7.43;;;3.83;;
33268;SDS011;19640;50.944;5.260;2023-03-11T08:56:38;9.50;;;4.15;;
33268;SDS011;19640;50.944;5.260;2023-03-11T08:59:04;6.22;;;3.92;;
33268;SDS011;19640;50.944;5.260;2023-03-11T09:01:29;5.88;;;3.15;;
33268;SDS011;19640;50.944;5.260;2023-03-11T09:03:55;8.35;;;3.67;;
33268;SDS011;19640;50.944;5.260;2023-03-11T09:06:21;6.43;;;4.35;;
33268;SDS011;19640;50.944;5.260;2023-03-11T09:08:48;9.10;;;3.30;;
33268;SDS011;19640;50.944;5.260;2023-03-11T09:11:14;4.22;;;2.90;;
33268;SDS011;19640;50.944;5.260;2023-03-11T09:13:41;10.00;;;4.97;;
33268;SDS011;19640;50.944;5.260;2023-03-11T09:16:17;4.35;;;2.67;;
33268;SDS011;19640;50.944;5.260;2023-03-11T09:18:45;6.75;;;3.10;;
33268;SDS011;19640;50.944;5.260;2023-03-11T09:21:11;7.75;;;2.50;;
33268;SDS011;19640;50.944;5.260;2023-03-11T09:23:37;6.35;;;2.65;;
33268;SDS011;19640;50.944;5.260;2023-03-11T09:26:03;6.28;;;2.80;;
33268;SDS011;19640;50.944;5.260;2023-03-11T09:28:29;6.32;;;2.92;;
33268;SDS011;19640;50.944;5.260;2023-03-11T09:30:55;6.50;;;2.10;;
33268;SDS011;19640;50.944;5.260;2023-03-11T09:33:21;7.00;;;2.55;;
33268;SDS011;19640;50.944;5.260;2023-03-11T09:35:47;4.30;;;2.35;;
33268;SDS011;19640;50.944;5.260;2023-03-11T09:38:13;5.88;;;2.88;;
33268;SDS011;19640;50.944;5.260;2023-03-11T09:52:08;2.67;;;1.23;;
33268;SDS011;19640;50.944;5.260;2023-03-11T09:54:42;2.67;;;1.48;;
33268;SDS011;19640;50.944;5.260;2023-03-11T09:57:13;6.38;;;1.30;;
33268;SDS011;19640;50.944;5.260;2023-03-11T09:59:45;2.20;;;1.13;;
33268;SDS011;19640;50.944;5.260;2023-03-11T10:02:19;3.78;;;1.00;;
33268;SDS011;19640;50.944;5.260;2023-03-11T10:04:57;14.35;;;3.05;;
33268;SDS011;19640;50.944;5.260;2023-03-11T10:07:37;5.75;;;0.95;;
33268;SDS011;19640;50.944;5.260;2023-03-11T10:10:05;2.75;;;1.02;;
33268;SDS011;19640;50.944;5.260;2023-03-11T10:12:42;1.80;;;0.82;;
33268;SDS011;19640;50.944;5.260;2023-03-11T10:15:21;4.70;;;0.77;;
33268;SDS011;19640;50.944;5.260;2023-03-11T10:18:21;2.50;;;0.57;;
33268;SDS011;19640;50.944;5.260;2023-03-11T10:26:58;2.10;;;0.70;;
33268;SDS011;19640;50.944;5.260;2023-03-11T10:32:16;4.18;;;1.58;;
33268;SDS011;19640;50.944;5.260;2023-03-11T10:35:03;4.13;;;0.90;;
33268;SDS011;19640;50.944;5.260;2023-03-11T10:37:53;3.22;;;0.90;;
33268;SDS011;19640;50.944;5.260;2023-03-11T10:40:30;5.43;;;0.93;;
33268;SDS011;19640;50.944;5.260;2023-03-11T10:43:00;3.90;;;1.00;;
33268;SDS011;19640;50.944;5.260;2023-03-11T10:45:32;2.53;;;0.98;;
33268;SDS011;19640;50.944;5.260;2023-03-11T10:48:11;1.58;;;0.80;;
33268;SDS011;19640;50.944;5.260;2023-03-11T10:53:15;3.08;;;0.80;;
33268;SDS011;19640;50.944;5.260;2023-03-11T10:55:50;2.83;;;0.80;;
33268;SDS011;19640;50.944;5.260;2023-03-11T10:58:18;5.28;;;1.88;;
33268;SDS011;19640;50.944;5.260;2023-03-11T11:03:26;2.70;;;1.00;;
33268;SDS011;19640;50.944;5.260;2023-03-11T11:06:00;2.17;;;0.90;;
33268;SDS011;19640;50.944;5.260;2023-03-11T11:08:28;5.13;;;2.00;;
33268;SDS011;19640;50.944;5.260;2023-03-11T11:10:56;4.72;;;0.90;;
33268;SDS011;19640;50.944;5.260;2023-03-11T11:13:25;8.77;;;2.53;;
33268;SDS011;19640;50.944;5.260;2023-03-11T11:23:38;2.90;;;1.33;;
33268;SDS011;19640;50.944;5.260;2023-03-11T11:26:14;1.95;;;1.00;;
33268;SDS011;19640;50.944;5.260;2023-03-11T11:29:10;3.97;;;1.40;;
33268;SDS011;19640;50.944;5.260;2023-03-11T11:31:43;3.75;;;0.98;;
33268;SDS011;19640;50.944;5.260;2023-03-11T11:36:55;2.08;;;1.10;;
33268;SDS011;19640;50.944;5.260;2023-03-11T11:39:23;4.57;;;1.00;;
33268;SDS011;19640;50.944;5.260;2023-03-11T11:41:55;1.95;;;1.10;;
33268;SDS011;19640;50.944;5.260;2023-03-11T11:44:21;3.30;;;1.05;;
33268;SDS011;19640;50.944;5.260;2023-03-11T11:49:32;2.75;;;1.00;;
33268;SDS011;19640;50.944;5.260;2023-03-11T11:52:09;5.70;;;0.88;;
33268;SDS011;19640;50.944;5.260;2023-03-11T11:54:56;5.38;;;1.00;;
33268;SDS011;19640;50.944;5.260;2023-03-11T11:57:25;4.05;;;0.88;;
33268;SDS011;19640;50.944;5.260;2023-03-11T11:59:51;2.45;;;1.00;;
33268;SDS011;19640;50.944;5.260;2023-03-11T12:10:36;2.63;;;0.95;;
33268;SDS011;19640;50.944;5.260;2023-03-11T12:18:19;2.47;;;0.70;;
33268;SDS011;19640;50.944;5.260;2023-03-11T12:20:56;2.55;;;1.23;;
33268;SDS011;19640;50.944;5.260;2023-03-11T12:26:03;2.95;;;0.80;;
33268;SDS011;19640;50.944;5.260;2023-03-11T12:31:11;5.50;;;0.93;;
33268;SDS011;19640;50.944;5.260;2023-03-11T12:33:44;2.67;;;0.82;;
33268;SDS011;19640;50.944;5.260;2023-03-11T12:38:59;2.00;;;0.73;;
33268;SDS011;19640;50.944;5.260;2023-03-11T12:41:30;3.03;;;0.73;;
33268;SDS011;19640;50.944;5.260;2023-03-11T12:49:23;5.90;;;1.27;;
33268;SDS011;19640;50.944;5.260;2023-03-11T12:54:38;3.03;;;0.85;;
33268;SDS011;19640;50.944;5.260;2023-03-11T13:02:46;1.83;;;0.90;;
33268;SDS011;19640;50.944;5.260;2023-03-11T13:05:42;2.17;;;0.65;;
33268;SDS011;19640;50.944;5.260;2023-03-11T13:08:12;2.58;;;1.00;;
33268;SDS011;19640;50.944;5.260;2023-03-11T13:10:42;1.70;;;0.80;;
33268;SDS011;19640;50.944;5.260;2023-03-11T13:13:22;5.05;;;0.98;;
33268;SDS011;19640;50.944;5.260;2023-03-11T13:15:54;4.55;;;0.73;;
33268;SDS011;19640;50.944;5.260;2023-03-11T13:18:29;5.15;;;1.27;;
33268;SDS011;19640;50.944;5.260;2023-03-11T13:21:00;1.88;;;0.80;;
33268;SDS011;19640;50.944;5.260;2023-03-11T13:23:45;1.88;;;0.60;;
33268;SDS011;19640;50.944;5.260;2023-03-11T13:26:12;3.20;;;0.70;;
33268;SDS011;19640;50.944;5.260;2023-03-11T13:37:19;2.97;;;0.52;;
33268;SDS011;19640;50.944;5.260;2023-03-11T13:40:24;4.43;;;0.55;;
33268;SDS011;19640;50.944;5.260;2023-03-11T13:43:00;2.38;;;0.70;;
33268;SDS011;19640;50.944;5.260;2023-03-11T13:48:00;2.40;;;0.80;;
33268;SDS011;19640;50.944;5.260;2023-03-11T13:50:52;1.90;;;0.98;;
33268;SDS011;19640;50.944;5.260;2023-03-11T13:53:32;2.53;;;0.60;;
33268;SDS011;19640;50.944;5.260;2023-03-11T13:56:04;2.42;;;1.00;;
33268;SDS011;19640;50.944;5.260;2023-03-11T13:58:39;3.92;;;0.60;;
33268;SDS011;19640;50.944;5.260;2023-03-11T14:01:05;8.52;;;0.80;;
33268;SDS011;19640;50.944;5.260;2023-03-11T14:03:40;8.70;;;0.90;;
33268;SDS011;19640;50.944;5.260;2023-03-11T14:06:08;2.80;;;0.70;;
33268;SDS011;19640;50.944;5.260;2023-03-11T14:08:40;2.33;;;0.88;;
33268;SDS011;19640;50.944;5.260;2023-03-11T14:13:39;2.50;;;0.75;;
33268;SDS011;19640;50.944;5.260;2023-03-11T14:18:41;1.33;;;0.80;;
33268;SDS011;19640;50.944;5.260;2023-03-11T14:21:25;1.27;;;0.52;;
33268;SDS011;19640;50.944;5.260;2023-03-11T14:23:52;4.28;;;1.10;;
33268;SDS011;19640;50.944;5.260;2023-03-11T14:26:29;1.40;;;0.70;;
33268;SDS011;19640;50.944;5.260;2023-03-11T14:29:06;5.15;;;0.95;;
33268;SDS011;19640;50.944;5.260;2023-03-11T14:31:39;2.00;;;0.70;;
33268;SDS011;19640;50.944;5.260;2023-03-11T14:34:21;1.92;;;0.70;;
33268;SDS011;19640;50.944;5.260;2023-03-11T14:36:55;4.93;;;1.25;;
33268;SDS011;19640;50.944;5.260;2023-03-11T14:39:24;6.03;;;1.23;;
33268;SDS011;19640;50.944;5.260;2023-03-11T14:44:30;3.53;;;0.70;;
33268;SDS011;19640;50.944;5.260;2023-03-11T14:47:09;17.88;;;1.02;;
33268;SDS011;19640;50.944;5.260;2023-03-11T14:49:35;1.40;;;0.65;;
33268;SDS011;19640;50.944;5.260;2023-03-11T14:52:04;5.10;;;0.95;;
33268;SDS011;19640;50.944;5.260;2023-03-11T14:54:35;1.25;;;0.68;;
33268;SDS011;19640;50.944;5.260;2023-03-11T14:59:53;4.85;;;1.42;;
33268;SDS011;19640;50.944;5.260;2023-03-11T15:04:57;1.30;;;0.70;;
33268;SDS011;19640;50.944;5.260;2023-03-11T15:07:26;4.45;;;0.70;;
33268;SDS011;19640;50.944;5.260;2023-03-11T15:09:52;1.88;;;0.98;;
33268;SDS011;19640;50.944;5.260;2023-03-11T15:12:34;5.40;;;1.17;;
33268;SDS011;19640;50.944;5.260;2023-03-11T15:17:52;3.97;;;0.65;;
33268;SDS011;19640;50.944;5.260;2023-03-11T15:23:04;2.50;;;0.70;;
33268;SDS011;19640;50.944;5.260;2023-03-11T15:25:35;2.90;;;0.90;;
33268;SDS011;19640;50.944;5.260;2023-03-11T15:28:21;4.03;;;0.80;;
33268;SDS011;19640;50.944;5.260;2023-03-11T15:30:49;2.40;;;0.80;;
33268;SDS011;19640;50.944;5.260;2023-03-11T15:33:20;5.50;;;0.60;;
33268;SDS011;19640;50.944;5.260;2023-03-11T15:35:48;1.73;;;0.70;;
33268;SDS011;19640;50.944;5.260;2023-03-11T15:38:24;4.28;;;0.85;;
33268;SDS011;19640;50.944;5.260;2023-03-11T15:40:55;6.10;;;0.90;;
33268;SDS011;19640;50.944;5.260;2023-03-11T15:46:10;1.27;;;0.47;;
33268;SDS011;19640;50.944;5.260;2023-03-11T15:48:36;1.10;;;0.60;;
33268;SDS011;19640;50.944;5.260;2023-03-11T15:51:01;3.08;;;0.90;;
33268;SDS011;19640;50.944;5.260;2023-03-11T15:53:27;1.20;;;0.55;;
33268;SDS011;19640;50.944;5.260;2023-03-11T15:55:56;2.30;;;0.60;;
33268;SDS011;19640;50.944;5.260;2023-03-11T15:58:24;2.25;;;0.80;;
33268;SDS011;19640;50.944;5.260;2023-03-11T16:00:53;4.65;;;0.70;;
33268;SDS011;19640;50.944;5.260;2023-03-11T16:03:23;3.15;;;1.13;;
33268;SDS011;19640;50.944;5.260;2023-03-11T16:05:49;4.07;;;0.80;;
33268;SDS011;19640;50.944;5.260;2023-03-11T16:08:15;3.83;;;0.98;;
33268;SDS011;19640;50.944;5.260;2023-03-11T16:10:40;5.00;;;1.30;;
33268;SDS011;19640;50.944;5.260;2023-03-11T16:13:13;2.35;;;1.20;;
33268;SDS011;19640;50.944;5.260;2023-03-11T16:15:40;1.50;;;0.52;;
33268;SDS011;19640;50.944;5.260;2023-03-11T16:18:07;2.05;;;0.70;;
33268;SDS011;19640;50.944;5.260;2023-03-11T16:20:36;2.63;;;0.70;;
33268;SDS011;19640;50.944;5.260;2023-03-11T16:23:06;5.07;;;0.70;;
33268;SDS011;19640;50.944;5.260;2023-03-11T16:25:37;2.17;;;0.73;;
33268;SDS011;19640;50.944;5.260;2023-03-11T16:28:04;1.92;;;0.75;;
33268;SDS011;19640;50.944;5.260;2023-03-11T16:30:30;3.20;;;0.73;;
33268;SDS011;19640;50.944;5.260;2023-03-11T16:32:57;2.15;;;0.60;;
33268;SDS011;19640;50.944;5.260;2023-03-11T16:35:23;4.00;;;0.70;;
33268;SDS011;19640;50.944;5.260;2023-03-11T16:37:50;1.83;;;0.88;;
33268;SDS011;19640;50.944;5.260;2023-03-11T16:40:17;3.58;;;0.95;;
33268;SDS011;19640;50.944;5.260;2023-03-11T16:42:45;2.35;;;0.60;;
33268;SDS011;19640;50.944;5.260;2023-03-11T16:45:12;1.88;;;0.80;;
33268;SDS011;19640;50.944;5.260;2023-03-11T16:47:38;2.25;;;0.65;;
33268;SDS011;19640;50.944;5.260;2023-03-11T16:50:04;3.03;;;0.70;;
33268;SDS011;19640;50.944;5.260;2023-03-11T16:52:30;3.85;;;0.73;;
33268;SDS011;19640;50.944;5.260;2023-03-11T16:54:56;1.35;;;0.65;;